• Join FlightAware (Why Join?)
  • Login
  • US Flag 
06:09AM EDT


 

Airport Tracker/Info


-or-


 

Live Flight TrackerFlight Track Log ✈ EMD27 ✈ 03-May-2013 ✈ KDQH - KPDK

Flight Track Log - Related Links

Times and Time Zones

All times are in EDT time to prevent confusion due to time zone crossing. See the EMD27 flight status page for this flight to view local times or setup timezone preferences in your user account.

Time Position Orientation Groundspeed Altitude Reporting Facility
EDT Latitude Longitude Course Direction KTS MPH feet Rate Location/Type
01:48AM 31.5403 -82.8903 337° Northwest 205 236 3,000  Level Jacksonville Center
01:49AM 31.7409 -83.0121 337° Northwest  Level FlightAware Approximate
01:49AM 31.5861 -82.9122 338° Northwest 177 204 4,100  Level Jacksonville Center
01:50AM 31.6278 -82.9342 336° Northwest 166 191 5,400 1,200 Climbing Jacksonville Center
01:51AM 31.6717 -82.9608 333° Northwest 166 191 6,600 1,200 Climbing Jacksonville Center
01:52AM 31.7133 -82.9878 331° Northwest 166 191 7,900 1,200 Climbing Jacksonville Center
01:53AM 31.7594 -83.0122 336° Northwest 166 191 9,000 600 Climbing Jacksonville Center
01:55AM 31.8703 -83.0803 332° Northwest 196 226 10,000 540 Climbing Atlanta Center
01:56AM 31.9267 -83.1139 333° Northwest 217 250 10,900 1,020 Climbing Atlanta Center
01:57AM 31.9772 -83.1428 334° Northwest 217 250 12,100 960 Climbing Atlanta Center
01:58AM 32.0211 -83.1717 331° Northwest 207 238 12,900 780 Climbing Atlanta Center
01:59AM 32.0672 -83.1958 336° Northwest 187 215 13,700 540 Climbing Atlanta Center
02:00AM 32.1156 -83.2247 333° Northwest 181 208 14,000 120 Climbing Atlanta Center
02:01AM 32.1658 -83.2561 332° Northwest 186 214 14,000  Level Atlanta Center
02:02AM 32.2203 -83.2875 334° Northwest 199 229 14,000  Level Atlanta Center
02:03AM 32.2747 -83.3192 334° Northwest 210 242 14,000  Level Atlanta Center
02:04AM 32.3292 -83.3531 332° Northwest 215 247 14,000  Level Atlanta Center
02:05AM 32.3897 -83.3919 332° Northwest 227 261 14,000  Level Atlanta Center
02:06AM 32.4506 -83.4283 333° Northwest 232 267 14,000  Level Atlanta Center
02:07AM 32.5092 -83.4625 334° Northwest 232 267 14,000  Level Atlanta Center
02:08AM 32.5700 -83.4992 333° Northwest 238 274 14,000  Level Atlanta Center
02:09AM 32.6286 -83.5406 329° Northwest 243 280 14,000  Level Atlanta Center
02:10AM 32.6892 -83.5700 338° Northwest 243 280 14,000  Level Atlanta Center
02:11AM 32.7478 -83.6092 331° Northwest 243 280 14,000  Level Atlanta Center
02:12AM 32.8083 -83.6433 335° Northwest 243 280 14,000  Level Atlanta Center
02:13AM 32.8669 -83.6803 332° Northwest 243 280 14,000  Level Atlanta Center
02:14AM 32.9256 -83.7172 332° Northwest 243 280 14,000  Level Atlanta Center
02:15AM 32.9839 -83.7517 334° Northwest 243 280 14,000  Level Atlanta Center
02:16AM 33.0425 -83.7836 335° Northwest 243 280 14,000  Level Atlanta Center
02:17AM 33.1072 -83.8256 332° Northwest 243 280 14,100  Climbing Atlanta Center
02:18AM 33.1667 -83.8667 330° Northwest 239 275 14,000 -60 Descending Atlanta TRACON
02:19AM 33.2333 -83.9000 337° Northwest 244 281 14,000 -480 Level Atlanta TRACON
02:20AM 33.2892 -83.9369 331° Northwest 248 285 13,100 -1,200 Descending Atlanta Center
02:21AM 33.3558 -83.9792 332° Northwest 259 298 11,700 -1,380 Descending Atlanta Center
02:22AM 33.4228 -84.0089 340° North 259 298 10,400 -1,380 Descending Atlanta Center
02:23AM 33.4936 -84.0364 342° North 254 292 9,000 -1,260 Descending Atlanta Center
02:24AM 33.5564 -84.0589 343° North 254 292 7,900 2,460 Descending Atlanta Center
02:25AM 33.6253 -84.0861 342° North 254 292 14,000 -1,500 Climbing Atlanta Center
02:26AM 33.6919 -84.1161 339° North 254 292 5,000 -5,040 Descending Atlanta Center
02:27AM 33.7667 -84.1500 339° North 241 277 3,900 -600 Descending Atlanta TRACON
02:28AM 33.8167 -84.1500 360° North 196 226 3,900  Level Atlanta TRACON
02:29AM 33.8833 -84.1500 360° North 191 220 3,900  Level Atlanta TRACON
02:30AM 33.9333 -84.1667 345° North 192 221 3,900 -420 Level Atlanta TRACON
02:31AM 33.9833 -84.1667 360° North 184 212 3,100 -540 Descending Atlanta TRACON
02:32AM 34.0167 -84.2000 320° Northwest 181 208 2,900 -120 Descending Atlanta TRACON
02:33AM 34.0000 -84.2500 248° West 178 205 2,900 -240 Level Atlanta TRACON
02:34AM 33.9500 -84.2667 195° South 147 169 2,500 -600 Descending Atlanta TRACON
02:35AM 33.9167 -84.2833 203° Southwest 141 162 1,800 -720 Descending Atlanta TRACON